createdAt,value
2019-04-27T00:00:01.259Z,973.76
2019-04-27T00:05:01.067Z,973.77
2019-04-27T00:10:03.504Z,973.81
2019-04-27T00:15:03.188Z,973.87
2019-04-27T00:20:01.272Z,973.92
2019-04-27T00:25:01.095Z,973.91
2019-04-27T00:30:01.286Z,973.87
2019-04-27T00:35:01.146Z,973.80
2019-04-27T00:40:01.098Z,973.85
2019-04-27T00:45:03.031Z,973.88
2019-04-27T00:50:03.450Z,974.12
2019-04-27T00:55:03.025Z,974.13
2019-04-27T01:00:01.135Z,974.24
2019-04-27T01:05:01.432Z,974.19
2019-04-27T01:10:02.967Z,974.32
2019-04-27T01:15:01.130Z,974.34
2019-04-27T01:20:01.145Z,974.44
2019-04-27T01:25:01.138Z,974.47
2019-04-27T01:30:01.369Z,974.41
2019-04-27T01:35:01.065Z,974.47
2019-04-27T01:40:01.439Z,974.53
2019-04-27T01:45:01.072Z,974.64
2019-04-27T01:50:01.104Z,974.85
2019-04-27T01:55:01.099Z,974.84
2019-04-27T02:00:01.149Z,974.84
2019-04-27T02:05:01.841Z,975.10
2019-04-27T02:10:01.489Z,975.20
2019-04-27T02:15:01.111Z,975.20
2019-04-27T02:20:01.204Z,975.32
2019-04-27T02:25:01.133Z,975.24
2019-04-27T02:30:01.524Z,975.24
2019-04-27T02:35:01.162Z,975.10
2019-04-27T02:40:01.523Z,975.09
2019-04-27T02:45:01.111Z,975.06
2019-04-27T02:50:01.101Z,975.21
2019-04-27T02:55:01.092Z,975.28
2019-04-27T03:00:01.136Z,975.40
2019-04-27T03:05:01.146Z,975.39
2019-04-27T03:10:02.329Z,975.32
2019-04-27T03:15:01.105Z,975.27
2019-04-27T03:20:01.165Z,975.31
2019-04-27T04:05:01.056Z,975.63
2019-04-27T04:10:01.066Z,975.60
2019-04-27T04:15:01.432Z,975.70
2019-04-27T04:20:01.655Z,975.74
2019-04-27T04:25:01.077Z,975.84
2019-04-27T04:30:01.461Z,975.86
2019-04-27T04:35:01.469Z,975.82
2019-04-27T04:40:01.057Z,975.82
2019-04-27T04:45:01.115Z,975.90
2019-04-27T04:50:10.708Z,975.89
2019-04-27T04:55:02.527Z,975.93
2019-04-27T05:00:01.480Z,975.96
2019-04-27T05:05:01.118Z,975.96
2019-04-27T05:10:01.394Z,975.94
2019-04-27T05:15:01.150Z,976.01
2019-04-27T05:20:01.084Z,976.00
2019-04-27T05:25:01.360Z,976.00
2019-04-27T05:30:01.476Z,976.03
2019-04-27T05:35:01.146Z,976.11
2019-04-27T05:40:01.124Z,976.11
2019-04-27T05:45:01.071Z,976.29
2019-04-27T05:50:01.100Z,976.19
2019-04-27T05:55:01.099Z,976.21
2019-04-27T06:00:02.419Z,976.20
2019-04-27T06:05:01.118Z,976.22
2019-04-27T06:10:01.089Z,976.19
2019-04-27T06:15:01.547Z,976.11
2019-04-27T06:20:01.083Z,976.05
2019-04-27T06:25:01.139Z,976.06
2019-04-27T06:30:01.074Z,976.11
2019-04-27T06:35:01.076Z,976.11
2019-04-27T06:40:01.072Z,976.11
2019-04-27T06:45:01.068Z,976.07
2019-04-27T06:50:01.081Z,976.09
2019-04-27T06:55:01.083Z,976.04
2019-04-27T07:00:01.086Z,976.08
2019-04-27T07:05:01.441Z,975.97
2019-04-27T07:10:08.605Z,975.98
2019-04-27T07:15:01.158Z,975.91
2019-04-27T07:20:01.136Z,975.93
2019-04-27T07:25:01.191Z,975.86
2019-04-27T07:30:01.753Z,975.79
2019-04-27T07:35:01.117Z,975.79
2019-04-27T07:40:01.439Z,975.86
2019-04-27T07:45:01.472Z,975.84
2019-04-27T07:50:01.356Z,975.82
2019-04-27T07:55:01.096Z,975.93
2019-04-27T08:00:01.077Z,975.89
2019-04-27T08:05:01.277Z,975.81
2019-04-27T08:10:01.685Z,975.80
2019-04-27T08:25:01.112Z,975.82
2019-04-27T08:30:01.144Z,975.76
2019-04-27T08:35:01.087Z,975.70
2019-04-27T08:40:01.078Z,975.69
2019-04-27T08:45:01.529Z,975.61
2019-04-27T08:50:01.193Z,975.65
2019-04-27T08:55:01.101Z,975.68
2019-04-27T09:00:01.134Z,975.66
2019-04-27T09:05:01.183Z,975.50
2019-04-27T09:10:01.110Z,975.57
2019-04-27T09:15:01.138Z,975.52
2019-04-27T09:20:01.110Z,975.51
2019-04-27T09:25:01.105Z,975.51
2019-04-27T09:30:01.269Z,975.45
2019-04-27T09:35:01.102Z,975.45
2019-04-27T09:40:01.563Z,975.49
2019-04-27T09:45:01.082Z,975.42
2019-04-27T09:50:01.128Z,975.34
2019-04-27T09:55:01.094Z,975.33
2019-04-27T10:00:01.505Z,975.29
2019-04-27T10:05:01.097Z,975.38
2019-04-27T10:10:01.101Z,975.35
2019-04-27T10:15:01.102Z,975.16
2019-04-27T10:20:01.903Z,975.02
2019-04-27T10:25:01.085Z,975.00
2019-04-27T10:30:01.088Z,975.12
2019-04-27T10:35:01.068Z,974.93
2019-04-27T10:40:01.882Z,974.95
2019-04-27T10:45:01.774Z,974.85
2019-04-27T10:50:01.688Z,974.78
2019-04-27T10:55:01.107Z,974.70
2019-04-27T11:00:01.146Z,974.67
2019-04-27T11:05:01.118Z,974.63
2019-04-27T11:10:01.137Z,974.49
2019-04-27T11:15:01.130Z,974.31
2019-04-27T11:20:02.784Z,974.50
2019-04-27T11:25:01.204Z,974.43
2019-04-27T11:30:01.571Z,974.41
2019-04-27T11:35:01.629Z,974.31
2019-04-27T11:40:01.345Z,974.25
2019-04-27T11:45:01.810Z,974.41
2019-04-27T11:50:02.278Z,974.28
2019-04-27T11:55:01.109Z,974.42
2019-04-27T12:00:04.729Z,974.38
2019-04-27T12:05:02.033Z,974.35
2019-04-27T12:10:05.725Z,974.30
2019-04-27T12:15:02.112Z,974.35
2019-04-27T12:20:01.125Z,974.30
2019-04-27T12:25:01.625Z,974.25
2019-04-27T12:30:02.097Z,974.35
2019-04-27T12:35:02.081Z,974.40
2019-04-27T12:40:01.632Z,974.31
2019-04-27T12:45:02.013Z,974.29
2019-04-27T12:50:01.630Z,974.20
2019-04-27T12:55:01.704Z,974.14
2019-04-27T13:00:02.109Z,974.20
2019-04-27T13:05:01.684Z,974.15
2019-04-27T13:10:01.653Z,974.10
2019-04-27T13:15:01.998Z,974.08
2019-04-27T13:20:01.683Z,974.01
2019-04-27T13:25:01.107Z,974.00
2019-04-27T13:30:01.119Z,973.95
2019-04-27T13:35:01.101Z,973.92
2019-04-27T13:40:07.057Z,973.98
2019-04-27T13:45:01.084Z,974.22
2019-04-27T13:50:01.086Z,974.01
2019-04-27T13:55:01.105Z,974.22
2019-04-27T14:00:01.390Z,974.17
2019-04-27T14:05:01.341Z,974.20
2019-04-27T14:10:01.069Z,974.14
2019-04-27T14:15:01.110Z,974.01
2019-04-27T14:20:01.106Z,973.90
2019-04-27T14:25:01.071Z,973.96
2019-04-27T14:30:01.082Z,974.04
2019-04-27T14:35:01.087Z,973.98
2019-04-27T14:40:01.101Z,974.08
2019-04-27T14:45:01.098Z,974.13
2019-04-27T14:50:01.098Z,974.26
2019-04-27T14:55:01.077Z,974.21
2019-04-27T15:00:01.115Z,974.24
2019-04-27T15:05:01.094Z,974.26
2019-04-27T15:10:01.074Z,974.30
2019-04-27T15:15:01.630Z,974.31
2019-04-27T15:20:01.495Z,974.33
2019-04-27T15:25:12.326Z,974.51
2019-04-27T15:30:06.080Z,974.51
2019-04-27T15:35:05.233Z,974.64
2019-04-27T15:40:08.190Z,974.71
2019-04-27T15:45:01.066Z,974.85
2019-04-27T15:50:01.148Z,974.86
2019-04-27T15:55:02.855Z,974.92
2019-04-27T16:00:01.110Z,974.80
2019-04-27T16:05:01.163Z,974.78
2019-04-27T16:10:02.715Z,974.78
2019-04-27T16:15:01.153Z,974.75
2019-04-27T16:20:01.454Z,974.77
2019-04-27T16:25:03.832Z,974.75
2019-04-27T16:30:09.669Z,974.81
2019-04-27T16:35:01.103Z,974.87
2019-04-27T16:40:01.369Z,974.87
2019-04-27T16:45:01.430Z,974.90
2019-04-27T16:50:01.127Z,974.87
2019-04-27T16:55:01.088Z,974.79
2019-04-27T17:00:01.320Z,974.86
2019-04-27T17:05:01.525Z,974.83
2019-04-27T17:10:01.099Z,974.80
2019-04-27T17:15:01.148Z,974.97
2019-04-27T17:20:01.119Z,974.92
2019-04-27T17:25:01.135Z,975.02
2019-04-27T17:30:01.781Z,975.02
2019-04-27T17:35:04.962Z,974.95
2019-04-27T17:40:01.102Z,975.13
2019-04-27T17:45:01.097Z,975.23
2019-04-27T17:50:01.093Z,975.33
2019-04-27T17:55:01.180Z,975.38
2019-04-27T18:00:03.320Z,975.40
2019-04-27T18:05:01.121Z,975.42
2019-04-27T18:10:01.600Z,975.44
2019-04-27T18:15:01.106Z,975.44
2019-04-27T18:20:01.367Z,975.64
2019-04-27T18:25:06.216Z,975.65
2019-04-27T18:30:03.319Z,975.78
2019-04-27T18:35:01.135Z,975.88
2019-04-27T18:40:01.083Z,976.00
2019-04-27T18:45:06.780Z,976.08
2019-04-27T18:50:10.866Z,976.10
2019-04-27T18:55:01.602Z,976.13
2019-04-27T19:00:01.684Z,976.20
2019-04-27T19:05:01.493Z,976.17
2019-04-27T19:10:01.600Z,976.26
2019-04-27T19:15:01.480Z,976.20
2019-04-27T19:20:01.103Z,976.25
2019-04-27T19:25:01.074Z,976.11
2019-04-27T19:30:01.099Z,976.19
2019-04-27T19:35:01.429Z,976.17
2019-04-27T19:40:01.427Z,976.20
2019-04-27T19:45:01.138Z,976.16
2019-04-27T19:50:01.120Z,976.18
2019-04-27T19:55:02.146Z,976.21
2019-04-27T20:00:01.638Z,976.13
2019-04-27T20:05:01.111Z,976.21
2019-04-27T20:10:01.560Z,976.28
2019-04-27T20:15:02.402Z,976.30
2019-04-27T20:20:01.642Z,976.36
2019-04-27T20:25:02.130Z,976.40
2019-04-27T20:30:03.014Z,976.44
2019-04-27T20:35:01.741Z,976.40
2019-04-27T20:40:01.621Z,976.35
2019-04-27T20:45:02.069Z,976.44
2019-04-27T20:50:01.734Z,976.31
2019-04-27T20:55:01.590Z,976.30
2019-04-27T21:00:02.118Z,976.42
2019-04-27T21:05:01.713Z,976.38
2019-04-27T21:10:01.085Z,976.38
2019-04-27T21:15:01.395Z,976.45
2019-04-27T21:20:01.408Z,976.55
2019-04-27T21:25:01.667Z,976.50
2019-04-27T21:30:02.720Z,976.52
2019-04-27T21:35:01.792Z,976.57
2019-04-27T21:40:02.048Z,976.51
2019-04-27T21:45:01.358Z,976.60
2019-04-27T21:50:01.074Z,976.49
2019-04-27T21:55:01.601Z,976.52
2019-04-27T22:00:01.448Z,976.42
2019-04-27T22:05:01.775Z,976.49
2019-04-27T22:10:02.006Z,976.52
2019-04-27T22:15:01.209Z,976.38
2019-04-27T22:20:01.661Z,976.29
2019-04-27T22:25:01.454Z,976.37
2019-04-27T22:30:01.068Z,976.39
2019-04-27T22:35:01.363Z,976.36
2019-04-27T22:40:01.101Z,976.37
2019-04-27T22:45:01.303Z,976.40
2019-04-27T22:50:01.067Z,976.49
2019-04-27T22:55:01.654Z,976.50
2019-04-27T23:00:03.352Z,976.44
2019-04-27T23:05:01.918Z,976.43
2019-04-27T23:10:01.542Z,976.31
2019-04-27T23:15:01.069Z,976.28
2019-04-27T23:20:01.527Z,976.17
2019-04-27T23:25:01.358Z,976.26
2019-04-27T23:30:01.569Z,976.17
2019-04-27T23:35:01.454Z,976.14
2019-04-27T23:40:02.997Z,976.16
2019-04-27T23:45:01.384Z,976.25
2019-04-27T23:50:01.076Z,976.20
2019-04-27T23:55:02.322Z,976.34
